Time;durP1;ratioP1;P1;durP2;ratioP2;P2;SDS_P1;SDS_P2;PMS_P1;PMS_P2;Temp;Humidity;BMP_temperature;BMP_pressure;BME280_temperature;BME280_humidity;BME280_pressure;Samples;Min_cycle;Max_cycle;Signal;HPM_P1;HPM_P2
2022/09/19 00:01:10;;;;;;;3.95;0.85;;;25.90;55.30;;;;;;5030833;28;20053;-66
2022/09/19 00:03:42;;;;;;;1.02;0.52;;;25.80;55.20;;;;;;5014923;28;20048;-67
2022/09/19 00:06:10;;;;;;;0.50;0.50;;;25.70;55.40;;;;;;5030912;28;20053;-67
2022/09/19 00:08:42;;;;;;;0.70;0.57;;;25.70;55.40;;;;;;5031196;28;20076;-67
2022/09/19 00:11:10;;;;;;;0.53;0.53;;;25.80;55.40;;;;;;5014076;28;20045;-68
2022/09/19 00:13:45;;;;;;;0.85;0.60;;;25.80;55.40;;;;;;5030839;28;20049;-67
2022/09/19 00:16:12;;;;;;;0.47;0.47;;;25.70;55.50;;;;;;5030498;28;20060;-67
2022/09/19 00:18:38;;;;;;;0.77;0.77;;;25.80;55.50;;;;;;5030569;28;20038;-66
2022/09/19 00:21:05;;;;;;;1.10;0.80;;;25.90;55.60;;;;;;5029149;28;20407;-67
2022/09/19 00:26:20;;;;;;;0.52;0.52;;;25.70;55.60;;;;;;5029950;28;20042;-66
2022/09/19 00:28:46;;;;;;;0.93;0.70;;;25.70;55.50;;;;;;5030697;28;20690;-67
2022/09/19 00:31:18;;;;;;;0.60;0.60;;;25.80;55.60;;;;;;5027556;28;20523;-67
2022/09/19 00:33:46;;;;;;;3.30;0.80;;;25.90;55.40;;;;;;5013531;28;20297;-67
2022/09/19 00:36:13;;;;;;;0.77;0.77;;;25.80;55.30;;;;;;5012204;28;20038;-67
2022/09/19 00:38:40;;;;;;;0.95;0.70;;;25.70;55.30;;;;;;5013640;28;20038;-68
2022/09/19 00:41:07;;;;;;;0.60;0.60;;;25.70;55.30;;;;;;5014473;28;20042;-67
2022/09/19 00:43:46;;;;;;;1.27;0.50;;;25.60;55.30;;;;;;4996476;28;20038;-68
2022/09/19 00:46:13;;;;;;;1.95;0.60;;;25.60;55.30;;;;;;5018072;28;20037;-68
2022/09/19 00:48:41;;;;;;;0.68;0.57;;;25.60;55.40;;;;;;5030390;28;20046;-67
2022/09/19 00:51:20;;;;;;;0.82;0.73;;;25.60;55.40;;;;;;5030388;28;20053;-67
2022/09/19 00:53:47;;;;;;;0.88;0.52;;;25.60;55.50;;;;;;5013710;28;20041;-67
2022/09/19 00:56:15;;;;;;;1.05;0.70;;;25.60;55.60;;;;;;5013829;28;20120;-66
2022/09/19 00:58:44;;;;;;;0.60;0.60;;;25.50;55.70;;;;;;5010439;28;20483;-67
2022/09/19 01:01:12;;;;;;;0.63;0.63;;;25.60;55.70;;;;;;5010122;28;20084;-67
2022/09/19 01:03:38;;;;;;;1.15;1.05;;;25.50;55.60;;;;;;5010394;28;20050;-68
2022/09/19 01:06:16;;;;;;;1.88;0.77;;;25.60;55.60;;;;;;5010394;28;20037;-66
2022/09/19 01:08:47;;;;;;;1.52;0.80;;;25.50;55.60;;;;;;5010138;28;20554;-67
2022/09/19 01:11:36;;;;;;;0.60;0.60;;;25.60;55.60;;;;;;5010418;28;20455;-67
2022/09/19 01:14:17;;;;;;;0.90;0.60;;;25.50;55.60;;;;;;5009982;28;20046;-67
2022/09/19 01:16:50;;;;;;;0.63;0.63;;;25.60;55.60;;;;;;5009993;28;20411;-67
2022/09/19 01:19:36;;;;;;;0.70;0.70;;;25.60;55.60;;;;;;4951563;29;20047;-67
2022/09/19 01:22:02;;;;;;;1.10;1.02;;;25.60;55.50;;;;;;4954472;28;20079;-66
2022/09/19 01:24:55;;;;;;;0.60;0.60;;;25.50;55.50;;;;;;4955009;28;20141;-67
2022/09/19 01:27:30;;;;;;;0.80;0.73;;;25.60;55.40;;;;;;4970900;28;20149;-67
2022/09/19 01:30:02;;;;;;;1.52;0.77;;;25.60;55.40;;;;;;4970931;28;20050;-68
2022/09/19 01:32:42;;;;;;;0.70;0.70;;;25.70;55.40;;;;;;4970347;28;20038;-67
2022/09/19 01:35:11;;;;;;;1.15;0.63;;;25.50;55.50;;;;;;4970913;28;20126;-67
2022/09/19 01:37:53;;;;;;;0.82;0.82;;;25.50;55.40;;;;;;4970042;28;20027;-66
2022/09/19 01:40:22;;;;;;;0.63;0.63;;;25.70;55.20;;;;;;4970623;28;20059;-67
2022/09/19 01:42:57;;;;;;;4.13;0.90;;;25.60;55.30;;;;;;4970605;28;20047;-67
2022/09/19 01:45:36;;;;;;;0.85;0.85;;;25.60;55.30;;;;;;4954758;28;20129;-67
2022/09/19 01:48:27;;;;;;;1.15;0.70;;;25.50;55.30;;;;;;4970108;28;20043;-66
2022/09/19 01:51:10;;;;;;;2.58;0.88;;;25.50;55.40;;;;;;4984067;28;20156;-66
2022/09/19 01:54:06;;;;;;;2.05;0.90;;;25.40;55.40;;;;;;4973030;28;20484;-66
2022/09/19 01:57:08;;;;;;;1.45;0.75;;;25.40;55.40;;;;;;5005266;28;20349;-66
2022/09/19 02:00:04;;;;;;;0.50;0.50;;;25.50;55.50;;;;;;4956699;28;20073;-67
2022/09/19 02:02:56;;;;;;;0.90;0.85;;;25.50;55.70;;;;;;4969661;28;20343;-67
2022/09/19 02:05:36;;;;;;;3.33;1.00;;;25.50;55.70;;;;;;4953426;28;20078;-67
2022/09/19 02:08:12;;;;;;;1.33;0.73;;;25.50;55.80;;;;;;4952960;28;20045;-67
2022/09/19 02:11:06;;;;;;;0.57;0.57;;;25.30;55.70;;;;;;4973472;28;20182;-68
2022/09/19 02:13:36;;;;;;;0.63;0.57;;;25.30;55.90;;;;;;4989344;28;20487;-67
2022/09/19 02:16:36;;;;;;;1.42;0.68;;;25.30;56.00;;;;;;4940701;28;20097;-67
2022/09/19 02:19:12;;;;;;;0.57;0.57;;;25.40;55.90;;;;;;4912617;29;20052;-68
2022/09/19 02:22:02;;;;;;;0.63;0.63;;;25.40;55.90;;;;;;4912136;29;20072;-66
2022/09/19 02:24:32;;;;;;;0.57;0.57;;;25.40;55.90;;;;;;4911826;29;20040;-67
2022/09/19 02:27:07;;;;;;;3.58;0.70;;;25.30;55.90;;;;;;4896295;29;20529;-67
2022/09/19 02:29:45;;;;;;;0.43;0.43;;;25.40;56.00;;;;;;4896018;29;20051;-68
2022/09/19 02:32:13;;;;;;;1.40;0.40;;;25.30;56.00;;;;;;4896345;29;20044;-67
2022/09/19 02:34:40;;;;;;;0.47;0.43;;;25.30;56.00;;;;;;4911259;29;20527;-67
2022/09/19 02:37:21;;;;;;;2.60;0.50;;;25.40;55.80;;;;;;4896459;29;20509;-67
2022/09/19 02:39:55;;;;;;;;;;;25.40;55.90;;;;;;4893957;29;20594;-68
2022/09/19 02:42:56;;;;;;;0.60;0.52;;;25.40;55.90;;;;;;4893408;29;19919;-66
2022/09/19 02:45:36;;;;;;;0.85;0.55;;;25.40;55.80;;;;;;4880668;29;20486;-67
2022/09/19 02:48:13;;;;;;;0.60;0.60;;;25.50;55.80;;;;;;4881753;29;20040;-67
2022/09/19 02:51:02;;;;;;;5.05;0.80;;;25.30;55.80;;;;;;4882001;29;20131;-67
2022/09/19 02:53:38;;;;;;;0.80;0.80;;;25.40;55.80;;;;;;4897495;29;20140;-67
2022/09/19 02:56:06;;;;;;;1.15;1.05;;;25.40;55.90;;;;;;4922271;28;20047;-67
2022/09/19 02:58:47;;;;;;;0.73;0.70;;;25.50;55.90;;;;;;4973589;28;20510;-67
2022/09/19 03:01:21;;;;;;;2.15;0.80;;;25.40;55.90;;;;;;4957337;28;20043;-68
2022/09/19 03:04:11;;;;;;;3.10;1.15;;;25.60;55.70;;;;;;4973714;28;20035;-68
2022/09/19 03:06:50;;;;;;;1.08;0.73;;;25.50;55.60;;;;;;4956906;28;20105;-67
2022/09/19 03:09:21;;;;;;;0.55;0.55;;;25.50;55.60;;;;;;4972929;28;20042;-67
2022/09/19 03:11:55;;;;;;;1.42;0.73;;;25.50;55.60;;;;;;4973488;28;20046;-67
2022/09/19 03:14:23;;;;;;;2.47;0.85;;;25.40;55.60;;;;;;4995444;28;20035;-67
2022/09/19 03:16:56;;;;;;;0.57;0.55;;;25.60;55.50;;;;;;4993171;28;20042;-68
2022/09/19 03:19:24;;;;;;;0.68;0.60;;;25.60;55.50;;;;;;4993613;28;20038;-67
2022/09/19 03:21:55;;;;;;;0.73;0.60;;;25.60;55.40;;;;;;5007036;28;20041;-67
2022/09/19 03:24:22;;;;;;;0.50;0.50;;;25.60;55.30;;;;;;5013038;28;20053;-67
2022/09/19 03:26:49;;;;;;;0.70;0.50;;;25.70;55.30;;;;;;5013259;28;20066;-66
2022/09/19 03:29:16;;;;;;;3.25;0.80;;;25.70;55.20;;;;;;5012018;28;20395;-67
2022/09/19 03:31:53;;;;;;;0.93;0.60;;;25.70;55.20;;;;;;4995814;28;20090;-66
2022/09/19 03:34:20;;;;;;;0.60;0.60;;;25.80;54.90;;;;;;4978303;28;20045;-67
2022/09/19 03:36:49;;;;;;;0.45;0.45;;;25.90;54.50;;;;;;5012021;28;20073;-67
2022/09/19 03:39:20;;;;;;;1.30;0.80;;;25.90;54.30;;;;;;4963046;28;20757;-67
2022/09/19 03:41:46;;;;;;;0.93;0.63;;;25.90;54.20;;;;;;5011804;28;20042;-67
2022/09/19 03:44:12;;;;;;;1.73;1.17;;;25.90;54.20;;;;;;4995673;28;20057;-67
2022/09/19 03:46:41;;;;;;;1.58;0.63;;;25.90;54.30;;;;;;5011881;28;20030;-67
2022/09/19 03:49:07;;;;;;;0.50;0.50;;;25.90;54.50;;;;;;5011812;28;20472;-67
2022/09/19 03:51:33;;;;;;;0.70;0.60;;;25.70;54.80;;;;;;5011931;28;20029;-67
2022/09/19 03:54:03;;;;;;;0.70;0.70;;;25.60;55.10;;;;;;4995434;28;20046;-67
2022/09/19 03:56:35;;;;;;;;;;;25.70;54.90;;;;;;5011833;28;20128;-69
2022/09/19 03:59:03;;;;;;;0.32;0.32;;;25.80;54.80;;;;;;4995068;28;20438;-69
2022/09/19 04:01:30;;;;;;;1.02;0.50;;;25.80;54.70;;;;;;5012777;28;20522;-68
2022/09/19 04:03:56;;;;;;;0.50;0.50;;;25.90;54.10;;;;;;4996390;28;20030;-68
2022/09/19 04:06:22;;;;;;;0.30;0.30;;;25.90;53.70;;;;;;5012881;28;20026;-68
2022/09/19 04:08:49;;;;;;;0.75;0.63;;;25.90;53.30;;;;;;5012520;28;20057;-67
2022/09/19 04:11:15;;;;;;;0.50;0.50;;;26.00;53.40;;;;;;5012644;28;20109;-70
2022/09/19 04:13:41;;;;;;;1.10;0.82;;;26.10;53.00;;;;;;4996643;28;20603;-72
2022/09/19 04:16:30;;;;;;;0.75;0.60;;;26.40;54.70;;;;;;5011760;28;20443;-73
2022/09/19 04:18:56;;;;;;;2.30;0.68;;;26.90;56.80;;;;;;4995622;28;20054;-72
2022/09/19 04:21:45;;;;;;;0.63;0.63;;;27.00;56.20;;;;;;5011654;28;20203;-70
2022/09/19 04:24:31;;;;;;;0.60;0.60;;;27.00;52.00;;;;;;4995005;28;20060;-72
2022/09/19 04:27:15;;;;;;;0.98;0.52;;;26.90;50.00;;;;;;5011231;28;20053;-72
2022/09/19 04:29:42;;;;;;;1.60;0.52;;;26.90;49.00;;;;;;4994869;28;20495;-73
2022/09/19 04:32:09;;;;;;;1.38;0.80;;;26.90;47.70;;;;;;5009694;28;20121;-71
2022/09/19 04:34:36;;;;;;;0.60;0.60;;;26.80;47.20;;;;;;4994593;28;20061;-72
2022/09/19 04:37:03;;;;;;;0.50;0.50;;;26.80;46.40;;;;;;4994822;28;20038;-72
2022/09/19 04:39:30;;;;;;;2.72;0.75;;;26.70;45.70;;;;;;4994564;28;20088;-71
2022/09/19 04:41:59;;;;;;;0.50;0.50;;;26.80;45.20;;;;;;4994074;28;20053;-72
2022/09/19 04:44:29;;;;;;;0.77;0.70;;;26.80;44.60;;;;;;4993848;28;20034;-71
2022/09/19 04:47:16;;;;;;;0.45;0.40;;;26.80;44.20;;;;;;4999474;28;20042;-75
2022/09/19 04:49:42;;;;;;;1.02;1.00;;;26.80;43.80;;;;;;5012412;28;20037;-74
2022/09/19 04:52:12;;;;;;;2.20;1.52;;;26.70;43.00;;;;;;4995290;28;20046;-74
2022/09/19 04:54:41;;;;;;;0.80;0.80;;;26.70;43.00;;;;;;4994783;28;20037;-75
2022/09/19 04:57:09;;;;;;;1.65;1.13;;;26.80;43.10;;;;;;4995200;28;20038;-74
2022/09/19 04:59:36;;;;;;;57.85;36.92;;;26.80;43.30;;;;;;5010773;28;20068;-74
2022/09/19 05:02:07;;;;;;;26.38;14.75;;;26.80;46.40;;;;;;5010282;28;20710;-71
2022/09/19 05:04:34;;;;;;;35.72;18.52;;;27.00;47.60;;;;;;5010148;28;20073;-71
2022/09/19 05:07:00;;;;;;;29.65;15.88;;;27.10;47.60;;;;;;5009605;28;20030;-71
2022/09/19 05:09:26;;;;;;;17.50;7.65;;;27.40;47.60;;;;;;5010356;28;20034;-73
2022/09/19 05:12:19;;;;;;;19.52;4.95;;;27.40;47.30;;;;;;4969756;28;20042;-72
2022/09/19 05:14:47;;;;;;;15.30;8.07;;;27.50;48.10;;;;;;4968582;28;20050;-73
2022/09/19 05:17:14;;;;;;;8.55;4.18;;;27.30;46.40;;;;;;4952856;28;20125;-73
2022/09/19 05:19:40;;;;;;;3.05;2.63;;;27.40;47.70;;;;;;4969722;28;20106;-78
2022/09/19 05:22:06;;;;;;;3.03;2.72;;;27.20;49.00;;;;;;4967011;28;20045;-72
2022/09/19 05:24:37;;;;;;;5.30;2.13;;;27.20;48.10;;;;;;4966617;28;20709;-74
2022/09/19 05:27:03;;;;;;;7.53;1.58;;;27.30;50.10;;;;;;4950630;28;20027;-72
2022/09/19 05:29:39;;;;;;;5.45;1.48;;;27.10;48.10;;;;;;4979683;28;20177;-71
2022/09/19 05:32:06;;;;;;;2.00;1.65;;;27.20;50.10;;;;;;4968520;28;20497;-72
2022/09/19 05:34:40;;;;;;;1.35;1.08;;;27.10;48.50;;;;;;4961852;28;20096;-70
2022/09/19 05:37:18;;;;;;;1.23;1.08;;;27.10;47.80;;;;;;4975902;28;20068;-75
2022/09/19 05:39:58;;;;;;;2.25;1.05;;;27.00;47.80;;;;;;4953205;28;20086;-73
2022/09/19 05:42:34;;;;;;;2.13;0.98;;;27.00;47.80;;;;;;4948836;28;20128;-73
2022/09/19 05:45:02;;;;;;;1.60;1.08;;;26.90;47.30;;;;;;4967517;28;20038;-66
2022/09/19 05:47:28;;;;;;;4.53;1.77;;;26.90;47.80;;;;;;4960100;28;20592;-69
2022/09/19 05:49:55;;;;;;;2.28;1.45;;;27.00;48.40;;;;;;4993279;28;20088;-68
2022/09/19 05:55:07;;;;;;;1.92;1.25;;;27.00;48.60;;;;;;5004700;28;20041;-68
2022/09/19 05:57:59;;;;;;;1.50;1.10;;;26.90;47.70;;;;;;4958402;28;20043;-70
2022/09/19 06:00:27;;;;;;;1.65;1.05;;;26.90;47.50;;;;;;4938368;28;20571;-69
2022/09/19 06:02:54;;;;;;;3.25;0.85;;;27.00;48.10;;;;;;4950332;28;20043;-67
2022/09/19 06:05:21;;;;;;;1.80;1.20;;;26.90;47.90;;;;;;4959269;28;20098;-68
2022/09/19 06:07:47;;;;;;;4.43;1.35;;;27.00;49.00;;;;;;4960481;28;20508;-68
2022/09/19 06:10:14;;;;;;;2.58;1.45;;;27.00;49.50;;;;;;4948735;28;20058;-68
2022/09/19 06:12:40;;;;;;;3.50;1.10;;;27.10;49.90;;;;;;4929268;29;20059;-69
2022/09/19 06:15:07;;;;;;;3.60;1.27;;;27.00;50.30;;;;;;4950353;28;20046;-67
2022/09/19 06:17:33;;;;;;;3.30;1.27;;;27.00;50.50;;;;;;4948603;28;20046;-67
2022/09/19 06:20:17;;;;;;;1.40;1.30;;;27.10;50.80;;;;;;4969374;28;20035;-72
2022/09/19 06:22:46;;;;;;;1.88;1.48;;;27.10;51.20;;;;;;4921592;28;20055;-71
2022/09/19 06:25:19;;;;;;;1.67;0.98;;;27.10;51.10;;;;;;4948512;28;20051;-73
2022/09/19 06:27:54;;;;;;;5.38;1.15;;;27.10;51.10;;;;;;4951482;28;20109;-70
2022/09/19 06:30:20;;;;;;;5.43;1.70;;;27.10;51.00;;;;;;4934705;29;20045;-71
2022/09/19 06:32:58;;;;;;;5.90;1.60;;;27.10;51.20;;;;;;4968789;28;20445;-69
2022/09/19 06:35:36;;;;;;;3.15;1.00;;;27.10;50.00;;;;;;4983859;28;20121;-69
2022/09/19 06:38:07;;;;;;;4.05;1.08;;;27.10;49.00;;;;;;4977060;28;20049;-72
2022/09/19 06:40:38;;;;;;;1.90;1.23;;;27.10;48.80;;;;;;4981222;28;20073;-71
2022/09/19 06:43:39;;;;;;;1.77;1.17;;;27.00;48.80;;;;;;4989483;28;20057;-69
2022/09/19 06:46:24;;;;;;;3.60;1.67;;;26.90;48.40;;;;;;4988794;28;20072;-70
2022/09/19 06:49:21;;;;;;;2.38;1.10;;;27.10;48.40;;;;;;4989292;28;20066;-74
2022/09/19 06:52:10;;;;;;;2.10;0.90;;;27.10;48.20;;;;;;4917301;29;20099;-72
2022/09/19 06:54:36;;;;;;;2.55;1.10;;;27.00;48.00;;;;;;4912428;29;20593;-71
2022/09/19 06:57:02;;;;;;;1.20;0.98;;;27.00;47.80;;;;;;4903403;29;20122;-72
2022/09/19 06:59:29;;;;;;;3.13;0.90;;;27.00;48.00;;;;;;4931143;29;20099;-72
2022/09/19 07:01:55;;;;;;;1.98;0.93;;;27.00;48.20;;;;;;4896896;29;20679;-70
2022/09/19 07:04:22;;;;;;;1.70;1.10;;;26.90;48.30;;;;;;4923921;29;20090;-72
2022/09/19 07:07:03;;;;;;;1.95;1.40;;;26.90;48.60;;;;;;4928128;29;20031;-73
2022/09/19 07:09:31;;;;;;;4.35;1.27;;;27.00;49.40;;;;;;4915355;29;20525;-71
2022/09/19 07:11:57;;;;;;;1.30;1.00;;;27.00;49.50;;;;;;4928018;29;20126;-74
2022/09/19 07:14:26;;;;;;;2.33;1.15;;;27.00;49.80;;;;;;4930731;29;20148;-69
2022/09/19 07:16:52;;;;;;;1.45;0.95;;;26.90;49.50;;;;;;4909559;29;20039;-69
2022/09/19 07:19:18;;;;;;;1.67;0.80;;;27.00;50.60;;;;;;4931272;29;20090;-72
2022/09/19 07:22:10;;;;;;;3.08;0.93;;;27.00;49.90;;;;;;4927333;29;20079;-69
2022/09/19 07:24:57;;;;;;;2.95;1.05;;;27.00;50.00;;;;;;4913703;29;20059;-70
2022/09/19 07:27:30;;;;;;;1.83;0.97;;;26.90;49.10;;;;;;4931241;29;20122;-69
2022/09/19 07:29:56;;;;;;;1.30;0.90;;;26.90;48.70;;;;;;4927479;29;20043;-69
2022/09/19 07:32:23;;;;;;;1.05;0.95;;;26.90;48.40;;;;;;4955045;28;20046;-69
2022/09/19 07:34:49;;;;;;;2.88;0.93;;;26.90;48.20;;;;;;4956763;28;20136;-69
2022/09/19 07:37:15;;;;;;;0.60;0.60;;;26.90;48.00;;;;;;4985819;28;20077;-71
2022/09/19 07:39:45;;;;;;;1.05;0.70;;;26.80;46.50;;;;;;4940572;28;20070;-71
2022/09/19 07:42:20;;;;;;;2.60;0.60;;;26.90;46.00;;;;;;4972741;28;20104;-70
2022/09/19 07:45:10;;;;;;;0.60;0.60;;;26.90;44.50;;;;;;4972875;28;20085;-71
2022/09/19 07:47:49;;;;;;;1.58;0.77;;;26.80;46.70;;;;;;4956860;28;20038;-70
2022/09/19 07:50:20;;;;;;;0.60;0.60;;;26.90;46.70;;;;;;4956407;28;20460;-69
2022/09/19 07:53:05;;;;;;;2.78;0.80;;;26.80;46.90;;;;;;4956350;28;20042;-70
2022/09/19 07:55:35;;;;;;;1.45;0.55;;;26.80;46.90;;;;;;4972344;28;20038;-69
2022/09/19 07:58:03;;;;;;;2.97;0.60;;;27.00;47.40;;;;;;4975254;28;20105;-69
2022/09/19 08:00:52;;;;;;;2.25;0.63;;;26.80;46.70;;;;;;5012735;28;20479;-72
2022/09/19 08:03:48;;;;;;;2.60;1.13;;;26.90;46.40;;;;;;4996673;28;20034;-74
2022/09/19 08:06:17;;;;;;;1.60;0.70;;;26.90;46.50;;;;;;5009120;28;20045;-71
2022/09/19 08:08:44;;;;;;;0.63;0.63;;;26.90;46.10;;;;;;4995276;28;20045;-72
2022/09/19 08:11:36;;;;;;;1.98;0.60;;;26.80;46.60;;;;;;4917926;29;20520;-73
2022/09/19 08:14:03;;;;;;;1.52;0.77;;;26.90;46.80;;;;;;4902087;29;20470;-71
2022/09/19 08:16:30;;;;;;;3.70;0.77;;;26.90;46.90;;;;;;4915750;29;20127;-72
2022/09/19 08:18:56;;;;;;;8.63;4.90;;;26.90;45.90;;;;;;4932243;29;20062;-71
2022/09/19 08:21:23;;;;;;;7.53;2.72;;;26.90;43.20;;;;;;4933502;29;20052;-71
2022/09/19 08:23:49;;;;;;;18.80;3.20;;;26.80;42.00;;;;;;4933657;29;20094;-71
2022/09/19 08:26:16;;;;;;;3.47;2.05;;;26.90;42.30;;;;;;4927191;29;20485;-71
2022/09/19 08:28:43;;;;;;;1.08;0.82;;;27.00;45.20;;;;;;4949145;29;20047;-71
2022/09/19 08:31:09;;;;;;;1.33;1.15;;;27.10;44.00;;;;;;4949065;29;20039;-73
2022/09/19 08:33:40;;;;;;;2.60;1.30;;;27.20;49.40;;;;;;4949139;29;20095;-71
2022/09/19 08:36:10;;;;;;;1.40;1.00;;;27.10;49.50;;;;;;4946557;29;20139;-69
2022/09/19 08:38:36;;;;;;;2.15;1.55;;;27.20;50.40;;;;;;4932707;29;20032;-71
2022/09/19 08:41:22;;;;;;;1.10;1.00;;;27.30;50.80;;;;;;4919055;29;20678;-69
2022/09/19 08:44:03;;;;;;;1.23;1.10;;;27.30;50.30;;;;;;4924262;29;20717;-70
2022/09/19 08:46:57;;;;;;;0.70;0.70;;;27.30;49.50;;;;;;4913754;29;20260;-72
2022/09/19 08:49:43;;;;;;;0.73;0.73;;;27.30;48.10;;;;;;4998312;28;20050;-71
2022/09/19 08:52:25;;;;;;;8.95;7.25;;;27.40;49.50;;;;;;4992211;28;20081;-71
2022/09/19 08:54:54;;;;;;;1.80;1.70;;;27.60;47.90;;;;;;5003004;28;20041;-72
2022/09/19 08:57:36;;;;;;;1.65;0.95;;;27.70;46.90;;;;;;5008655;28;20033;-70
2022/09/19 09:00:15;;;;;;;2.38;0.88;;;27.60;46.80;;;;;;5011133;28;20128;-71
2022/09/19 09:03:16;;;;;;;0.50;0.50;;;27.70;46.60;;;;;;5011788;28;20048;-71
2022/09/19 09:06:03;;;;;;;0.75;0.75;;;27.70;46.40;;;;;;5011230;28;20042;-68
2022/09/19 09:08:46;;;;;;;3.50;0.70;;;27.70;47.60;;;;;;5011786;28;20029;-68
2022/09/19 09:11:29;;;;;;;0.75;0.57;;;27.70;44.90;;;;;;5012992;28;20049;-67
2022/09/19 09:14:14;;;;;;;3.30;0.77;;;27.70;43.50;;;;;;5011442;28;20179;-69
2022/09/19 09:17:01;;;;;;;0.40;0.40;;;28.10;45.60;;;;;;5011439;28;20030;-69
2022/09/19 09:19:37;;;;;;;3.17;1.20;;;28.80;50.00;;;;;;5012684;28;20663;-68
2022/09/19 09:22:10;;;;;;;1.55;0.93;;;29.10;48.80;;;;;;5011329;28;20088;-69
2022/09/19 09:25:03;;;;;;;1.30;0.80;;;28.90;45.20;;;;;;5011375;28;20104;-69
2022/09/19 09:27:48;;;;;;;1.58;0.90;;;28.60;44.50;;;;;;5011036;28;20034;-68
2022/09/19 09:30:19;;;;;;;0.77;0.68;;;28.40;44.20;;;;;;5011013;28;20089;-67
2022/09/19 09:33:02;;;;;;;1.23;0.80;;;28.30;44.30;;;;;;5010733;28;20045;-68
2022/09/19 09:35:54;;;;;;;0.93;0.93;;;28.20;45.00;;;;;;5010330;28;20088;-68
2022/09/19 09:38:47;;;;;;;2.95;0.80;;;28.40;45.90;;;;;;5010259;28;20083;-69
2022/09/19 09:44:27;;;;;;;3.60;0.75;;;29.10;48.10;;;;;;4989025;28;20136;-68
2022/09/19 09:47:05;;;;;;;0.73;0.65;;;29.10;46.10;;;;;;4989324;28;20049;-67
2022/09/19 09:49:37;;;;;;;1.05;0.80;;;28.80;45.50;;;;;;5006336;28;20058;-68
2022/09/19 09:52:57;;;;;;;4.75;0.93;;;28.70;46.30;;;;;;4990368;28;20038;-68
2022/09/19 09:58:36;;;;;;;0.75;0.70;;;28.60;46.80;;;;;;4951437;29;20036;-68
2022/09/19 10:04:14;;;;;;;0.55;0.55;;;28.40;46.40;;;;;;4969662;28;20134;-68
2022/09/19 10:07:09;;;;;;;0.70;0.70;;;28.30;46.60;;;;;;4953655;28;20397;-70
2022/09/19 10:09:41;;;;;;;0.88;0.60;;;28.30;46.70;;;;;;4970238;28;20061;-68
2022/09/19 10:12:25;;;;;;;0.85;0.65;;;28.20;46.90;;;;;;4967393;28;20126;-69
2022/09/19 10:14:58;;;;;;;1.08;0.80;;;28.20;47.00;;;;;;4931631;29;20055;-68
2022/09/19 10:17:48;;;;;;;1.02;0.52;;;28.20;47.20;;;;;;4931791;29;20087;-67
2022/09/19 10:20:31;;;;;;;1.13;0.55;;;28.10;48.00;;;;;;4915803;29;20051;-67
2022/09/19 10:22:57;;;;;;;0.98;0.70;;;28.10;48.30;;;;;;4914904;29;20149;-68
2022/09/19 10:25:26;;;;;;;0.88;0.80;;;28.00;48.50;;;;;;4914541;29;20090;-69
2022/09/19 10:27:54;;;;;;;0.73;0.73;;;28.10;47.40;;;;;;4914821;29;20099;-70
2022/09/19 10:30:41;;;;;;;0.82;0.50;;;27.90;43.40;;;;;;4952345;28;20047;-69
2022/09/19 10:33:44;;;;;;;1.52;0.77;;;27.90;46.80;;;;;;4953318;28;20046;-68
2022/09/19 10:36:21;;;;;;;1.55;0.70;;;27.90;47.90;;;;;;4933631;29;20050;-68
2022/09/19 10:38:54;;;;;;;2.75;0.70;;;27.90;48.40;;;;;;4965844;28;20035;-68
2022/09/19 10:41:25;;;;;;;0.50;0.50;;;27.80;48.00;;;;;;4933548;29;20056;-68
2022/09/19 10:43:58;;;;;;;1.15;0.70;;;27.70;48.40;;;;;;4933655;29;20042;-68
2022/09/19 10:46:36;;;;;;;0.60;0.60;;;27.80;48.40;;;;;;4934914;29;20066;-69
2022/09/19 10:49:28;;;;;;;0.60;0.60;;;27.80;48.50;;;;;;4933279;29;20043;-67
2022/09/19 10:51:59;;;;;;;1.10;0.70;;;27.70;48.40;;;;;;4920648;29;20044;-68
2022/09/19 10:54:43;;;;;;;4.57;0.70;;;27.80;48.60;;;;;;4930626;29;20043;-68
2022/09/19 10:57:51;;;;;;;1.23;0.77;;;27.70;48.70;;;;;;4930418;29;20342;-69
2022/09/19 11:00:43;;;;;;;2.22;0.70;;;27.80;48.90;;;;;;4909059;29;20070;-68
2022/09/19 11:03:32;;;;;;;0.70;0.70;;;27.70;49.00;;;;;;4894250;29;20611;-69
2022/09/19 11:06:10;;;;;;;1.83;0.70;;;27.70;49.20;;;;;;4897461;29;20079;-69
2022/09/19 11:08:45;;;;;;;4.50;0.70;;;27.80;49.60;;;;;;4899088;29;20068;-68
2022/09/19 11:11:20;;;;;;;0.50;0.50;;;27.70;49.50;;;;;;4915144;29;20040;-68
2022/09/19 11:14:05;;;;;;;0.70;0.40;;;27.60;49.50;;;;;;4913043;29;20076;-69
2022/09/19 11:16:49;;;;;;;0.80;0.80;;;27.70;49.40;;;;;;4884577;29;20051;-69
2022/09/19 11:19:48;;;;;;;1.75;1.10;;;27.80;49.10;;;;;;4897833;29;20056;-67
2022/09/19 11:22:18;;;;;;;0.43;0.43;;;27.60;49.00;;;;;;4903037;29;20139;-68
2022/09/19 11:24:54;;;;;;;0.60;0.60;;;27.60;49.10;;;;;;4884034;29;20048;-68
2022/09/19 11:27:36;;;;;;;2.08;0.90;;;27.60;48.70;;;;;;4899995;29;20044;-71
2022/09/19 11:30:14;;;;;;;3.58;1.15;;;27.60;49.50;;;;;;4896314;29;20045;-70
2022/09/19 11:32:47;;;;;;;2.15;0.90;;;27.40;51.90;;;;;;4895540;29;20446;-70
2022/09/19 11:35:28;;;;;;;2.85;0.95;;;27.60;50.10;;;;;;4932925;29;20323;-69
2022/09/19 11:38:28;;;;;;;4.32;0.80;;;27.40;49.50;;;;;;4926385;29;20060;-71
2022/09/19 11:41:04;;;;;;;1.10;0.60;;;27.40;49.00;;;;;;4898616;29;20522;-70
2022/09/19 11:43:49;;;;;;;0.57;0.57;;;27.50;48.70;;;;;;4914909;29;20048;-70
2022/09/19 11:46:16;;;;;;;1.20;1.08;;;27.50;48.10;;;;;;4933149;29;20116;-71
2022/09/19 11:49:07;;;;;;;0.90;0.90;;;27.40;47.50;;;;;;4913839;29;20044;-70
2022/09/19 11:51:39;;;;;;;1.38;0.70;;;27.60;47.00;;;;;;4898320;29;20076;-69
2022/09/19 11:54:34;;;;;;;1.65;0.60;;;27.40;46.70;;;;;;4914654;29;20039;-70
2022/09/19 11:57:23;;;;;;;1.00;0.70;;;27.40;46.40;;;;;;4916770;29;20040;-69
2022/09/19 11:59:55;;;;;;;2.15;0.70;;;27.30;45.40;;;;;;4968715;28;20051;-70
2022/09/19 12:02:40;;;;;;;0.40;0.40;;;27.50;45.60;;;;;;4996364;28;20042;-71
2022/09/19 12:05:25;;;;;;;1.77;0.57;;;27.40;45.60;;;;;;5012643;28;20034;-69
2022/09/19 12:08:01;;;;;;;1.45;0.70;;;27.30;45.10;;;;;;5027699;28;20053;-69
2022/09/19 12:10:35;;;;;;;0.57;0.57;;;27.30;45.40;;;;;;5012857;28;20065;-71
2022/09/19 12:13:23;;;;;;;3.95;0.60;;;27.30;45.00;;;;;;5012975;28;20038;-72
2022/09/19 12:16:04;;;;;;;1.15;0.80;;;27.30;44.50;;;;;;5008831;28;20037;-72
2022/09/19 12:18:44;;;;;;;0.65;0.65;;;27.20;44.90;;;;;;5010660;28;20053;-69
2022/09/19 12:21:15;;;;;;;0.68;0.63;;;27.20;44.80;;;;;;5012489;28;20447;-70
2022/09/19 12:26:56;;;;;;;0.65;0.60;;;27.20;45.00;;;;;;5012357;28;20036;-68
2022/09/19 12:29:43;;;;;;;3.22;1.10;;;27.10;45.70;;;;;;5028410;28;20468;-68
2022/09/19 12:32:20;;;;;;;0.68;0.68;;;27.10;46.00;;;;;;5003703;28;20095;-70
2022/09/19 12:35:07;;;;;;;2.45;0.75;;;27.30;45.90;;;;;;5024693;28;20050;-70
2022/09/19 12:37:43;;;;;;;1.05;0.77;;;27.20;45.80;;;;;;4994393;28;20100;-71
2022/09/19 12:40:19;;;;;;;3.28;1.13;;;27.20;45.60;;;;;;4994160;28;20030;-71
2022/09/19 12:43:18;;;;;;;3.03;0.68;;;27.20;45.50;;;;;;5011401;28;20042;-70
2022/09/19 12:45:57;;;;;;;0.50;0.50;;;27.20;44.90;;;;;;5006729;28;20132;-71
2022/09/19 12:48:38;;;;;;;0.47;0.40;;;27.10;44.00;;;;;;5010989;28;20040;-69
2022/09/19 12:51:49;;;;;;;3.28;1.10;;;27.20;43.80;;;;;;4985398;28;20135;-71
2022/09/19 12:54:21;;;;;;;0.60;0.60;;;27.10;43.60;;;;;;4987254;28;20088;-72
2022/09/19 12:56:58;;;;;;;0.88;0.52;;;27.20;43.60;;;;;;4984158;28;20045;-71
2022/09/19 12:59:25;;;;;;;0.50;0.50;;;27.10;43.00;;;;;;4976658;28;20045;-71
2022/09/19 13:02:19;;;;;;;0.95;0.90;;;27.20;42.60;;;;;;4988265;28;20057;-72
2022/09/19 13:04:52;;;;;;;1.25;0.60;;;27.10;42.40;;;;;;4985126;28;20042;-71
2022/09/19 13:07:40;;;;;;;0.82;0.80;;;27.20;41.70;;;;;;4971623;28;20484;-71
2022/09/19 13:10:27;;;;;;;1.10;0.80;;;27.20;40.90;;;;;;4971629;28;20035;-75
2022/09/19 13:13:11;;;;;;;1.73;0.90;;;27.20;40.90;;;;;;4973661;28;20081;-73
2022/09/19 13:15:37;;;;;;;0.70;0.70;;;27.10;40.10;;;;;;4974779;28;20551;-69
2022/09/19 13:23:39;;;;;;;1.25;0.85;;;27.00;39.90;;;;;;4954502;28;20046;-72
2022/09/19 13:26:24;;;;;;;1.65;0.77;;;27.00;39.90;;;;;;4954401;28;20051;-71
2022/09/19 13:28:55;;;;;;;0.88;0.88;;;27.00;38.70;;;;;;4983541;28;20042;-72
2022/09/19 13:31:39;;;;;;;1.20;0.98;;;27.00;38.70;;;;;;5005234;28;20064;-72
2022/09/19 13:35:00;;;;;;;0.70;0.60;;;27.00;39.30;;;;;;5011256;28;20030;-70
2022/09/19 13:37:26;;;;;;;6.25;1.20;;;27.00;39.30;;;;;;5011156;28;20041;-72
2022/09/19 13:40:03;;;;;;;1.08;0.95;;;27.00;39.00;;;;;;5012380;28;20042;-68
2022/09/19 13:42:52;;;;;;;2.92;1.83;;;27.10;43.00;;;;;;5011945;28;20139;-71
2022/09/19 13:45:43;;;;;;;0.40;0.40;;;27.50;43.20;;;;;;5011355;28;20117;-72
2022/09/19 13:48:23;;;;;;;0.60;0.60;;;27.90;42.00;;;;;;5012202;28;20072;-71
2022/09/19 13:50:58;;;;;;;2.40;1.08;;;27.90;41.10;;;;;;5012080;28;20041;-70
2022/09/19 13:53:36;;;;;;;0.80;0.80;;;27.70;37.60;;;;;;5012220;28;20160;-69
2022/09/19 13:56:24;;;;;;;2.58;1.65;;;27.60;37.80;;;;;;5012014;28;20101;-68
2022/09/19 13:59:24;;;;;;;1.77;1.40;;;27.60;34.90;;;;;;5012301;28;20053;-69